Time,TemperatureF,DewpointF,PressureIn,WindDirection,WindDirectionDegrees,WindSpeedMPH,WindSpeedGustMPH,Humidity,HourlyPrecipIn,Conditions,Clouds,dailyrainin,SolarRadiationWatts/m^2,SoftwareType,DateUTC
2014-12-20 00:04:00,42.5,36.8,29.93,WSW,258,19.0,25.3,80,0.00,,,0.00,0.0,WeatherDisplay:10.37,2014-12-20 00:04:00,
2014-12-20 00:09:00,42.5,36.8,29.93,West,260,17.8,30.0,80,0.00,CLR,,0.00,0.0,WeatherDisplay:10.37,2014-12-20 00:09:00,
2014-12-20 00:14:00,42.7,36.6,29.94,WSW,244,18.6,24.2,79,0.00,CLR,,0.00,0.0,WeatherDisplay:10.37,2014-12-20 00:14:00,
2014-12-20 00:19:00,42.9,36.8,29.94,West,259,22.8,32.2,79,0.00,,,0.00,0.0,WeatherDisplay:10.37,2014-12-20 00:19:00,
2014-12-20 00:24:00,42.9,36.8,29.94,North,360,17.1,21.0,79,0.00,,,0.00,0.0,WeatherDisplay:10.37,2014-12-20 00:24:00,
2014-12-20 00:29:00,42.9,36.8,29.93,West,261,20.8,25.3,79,0.00,CLR,,0.00,0.0,WeatherDisplay:10.37,2014-12-20 00:29:00,
2014-12-20 00:34:00,42.9,36.8,29.93,WSW,257,16.8,23.0,79,0.00,CLR,,0.00,0.0,WeatherDisplay:10.37,2014-12-20 00:34:00,
2014-12-20 00:39:00,42.9,36.8,29.94,West,259,19.8,24.2,79,0.00,CLR,,0.00,0.0,WeatherDisplay:10.37,2014-12-20 00:39:00,
2014-12-20 00:44:00,42.9,36.8,29.94,West,261,19.9,26.5,79,0.00,CLR,,0.00,0.0,WeatherDisplay:10.37,2014-12-20 00:44:00,
2014-12-20 00:49:00,42.9,36.5,29.94,WSW,254,19.4,25.3,78,0.00,CLR,,0.00,0.0,WeatherDisplay:10.37,2014-12-20 00:49:00,
2014-12-20 00:54:00,43.1,36.7,29.93,WSW,254,21.7,24.2,78,0.00,CLR,,0.00,0.0,WeatherDisplay:10.37,2014-12-20 00:54:00,
2014-12-20 00:59:00,43.3,36.9,29.93,WSW,257,24.8,26.5,78,0.00,CLR,,0.00,0.0,WeatherDisplay:10.37,2014-12-20 00:59:00,
2014-12-20 01:04:00,43.2,36.8,29.93,WSW,252,19.1,24.2,78,0.00,,,0.00,0.0,WeatherDisplay:10.37,2014-12-20 01:04:00,
2014-12-20 01:09:00,43.1,36.7,29.93,WSW,254,19.5,26.5,78,0.00,CLR,,0.00,0.0,WeatherDisplay:10.37,2014-12-20 01:09:00,
2014-12-20 01:14:00,43.3,36.9,29.93,West,261,19.3,26.5,78,0.00,CLR,,0.00,0.0,WeatherDisplay:10.37,2014-12-20 01:14:00,
2014-12-20 01:19:00,43.5,37.1,29.93,West,273,16.7,27.0,78,0.00,CLR,,0.00,0.0,WeatherDisplay:10.37,2014-12-20 01:19:00,
2014-12-20 01:24:00,43.6,37.5,29.93,West,275,17.2,24.2,79,0.00,,,0.00,0.0,WeatherDisplay:10.37,2014-12-20 01:24:00,
2014-12-20 01:29:00,43.6,37.5,29.93,WSW,244,21.9,26.5,79,0.00,,,0.00,0.0,WeatherDisplay:10.37,2014-12-20 01:29:00,
2014-12-20 01:34:00,43.5,37.7,29.94,WSW,257,18.1,25.3,80,0.00,,,0.00,0.0,WeatherDisplay:10.37,2014-12-20 01:34:00,
2014-12-20 01:39:00,43.2,37.4,29.94,WSW,256,20.7,24.2,80,0.00,CLR,,0.00,0.0,WeatherDisplay:10.37,2014-12-20 01:39:00,
2014-12-20 01:44:00,43.0,37.6,29.95,WSW,254,18.3,23.0,81,0.00,CLR,,0.00,0.0,WeatherDisplay:10.37,2014-12-20 01:44:00,
2014-12-20 01:49:00,42.9,37.5,29.95,West,259,18.1,20.7,81,0.00,CLR,,0.00,0.0,WeatherDisplay:10.37,2014-12-20 01:49:00,
2014-12-20 01:54:00,42.9,37.5,29.95,WSW,256,16.3,21.9,81,0.00,CLR,,0.00,0.0,WeatherDisplay:10.37,2014-12-20 01:54:00,
2014-12-20 01:59:00,43.0,37.6,29.95,WSW,254,16.5,23.0,81,0.00,CLR,,0.00,0.0,WeatherDisplay:10.37,2014-12-20 01:59:00,
2014-12-20 02:04:00,43.2,37.4,29.95,West,267,17.9,24.0,80,0.00,CLR,,0.00,0.0,WeatherDisplay:10.37,2014-12-20 02:04:00,
2014-12-20 02:09:00,43.3,37.5,29.95,WSW,257,17.4,21.9,80,0.00,CLR,,0.00,0.0,WeatherDisplay:10.37,2014-12-20 02:09:00,
2014-12-20 02:14:00,43.1,37.7,29.95,West,259,18.8,23.0,81,0.00,CLR,,0.00,0.0,WeatherDisplay:10.37,2014-12-20 02:14:00,
2014-12-20 02:19:00,42.9,37.8,29.95,West,265,14.7,19.6,82,0.00,CLR,,0.00,0.0,WeatherDisplay:10.37,2014-12-20 02:19:00,
2014-12-20 02:24:00,42.7,37.6,29.95,West,265,14.9,16.1,82,0.00,CLR,,0.00,0.0,WeatherDisplay:10.37,2014-12-20 02:24:00,
2014-12-20 02:29:00,42.6,37.5,29.94,WSW,246,13.9,18.4,82,0.00,CLR,,0.00,0.0,WeatherDisplay:10.37,2014-12-20 02:29:00,
2014-12-20 02:34:00,42.7,37.6,29.94,West,260,15.1,19.6,82,0.00,CLR,,0.00,0.0,WeatherDisplay:10.37,2014-12-20 02:34:00,
2014-12-20 02:39:00,42.8,37.7,29.94,West,259,15.5,20.7,82,0.00,CLR,,0.00,0.0,WeatherDisplay:10.37,2014-12-20 02:39:00,
2014-12-20 02:44:00,42.8,37.4,29.95,WSW,247,18.1,21.9,81,0.00,CLR,,0.00,0.0,WeatherDisplay:10.37,2014-12-20 02:44:00,
2014-12-20 02:49:00,42.7,37.6,29.95,WSW,252,15.0,24.0,82,0.00,CLR,,0.00,0.0,WeatherDisplay:10.37,2014-12-20 02:49:00,
2014-12-20 02:54:00,42.7,37.6,29.95,WSW,257,16.6,19.6,82,0.00,CLR,,0.00,0.0,WeatherDisplay:10.37,2014-12-20 02:54:00,
2014-12-20 02:59:00,42.6,37.5,29.95,West,259,13.9,19.6,82,0.00,CLR,,0.00,0.0,WeatherDisplay:10.37,2014-12-20 02:59:00,
2014-12-20 03:04:00,42.5,37.4,29.95,West,263,15.9,21.0,82,0.00,CLR,,0.00,0.0,WeatherDisplay:10.37,2014-12-20 03:04:00,
2014-12-20 03:09:00,42.4,37.6,29.95,WSW,253,13.8,17.0,83,0.00,CLR,,0.00,0.0,WeatherDisplay:10.37,2014-12-20 03:09:00,
2014-12-20 03:14:00,42.2,37.4,29.95,West,259,11.9,16.1,83,0.00,CLR,,0.00,0.0,WeatherDisplay:10.37,2014-12-20 03:14:00,
2014-12-20 03:19:00,42.2,37.4,29.95,West,268,13.1,16.1,83,0.00,CLR,,0.00,0.0,WeatherDisplay:10.37,2014-12-20 03:19:00,
2014-12-20 03:24:00,42.4,37.3,29.94,West,261,14.5,26.5,82,0.00,CLR,,0.00,0.0,WeatherDisplay:10.37,2014-12-20 03:24:00,
2014-12-20 03:29:00,42.7,37.3,29.95,WSW,254,15.0,23.0,81,0.00,CLR,,0.00,0.0,WeatherDisplay:10.37,2014-12-20 03:29:00,
2014-12-20 03:34:00,42.4,37.3,29.95,WSW,258,15.0,21.0,82,0.00,CLR,CLR,0.00,0.0,WeatherDisplay:10.37,2014-12-20 03:34:00,
2014-12-20 03:39:00,42.2,37.4,29.95,WSW,246,14.7,18.4,83,0.00,CLR,,0.00,0.0,WeatherDisplay:10.37,2014-12-20 03:39:00,
2014-12-20 03:44:00,42.6,37.2,29.95,West,270,15.0,19.6,81,0.00,CLR,,0.00,0.0,WeatherDisplay:10.37,2014-12-20 03:44:00,
2014-12-20 03:49:00,42.6,37.2,29.95,West,260,13.0,23.0,81,0.00,CLR,CLR,0.00,0.0,WeatherDisplay:10.37,2014-12-20 03:49:00,
2014-12-20 03:54:00,42.5,37.1,29.95,West,259,15.2,18.4,81,0.00,CLR,,0.00,0.0,WeatherDisplay:10.37,2014-12-20 03:54:00,
2014-12-20 03:59:00,42.4,37.0,29.95,West,279,12.1,19.6,81,0.00,CLR,,0.00,0.0,WeatherDisplay:10.37,2014-12-20 03:59:00,
2014-12-20 04:04:00,42.4,36.7,29.95,West,269,11.2,16.1,80,0.00,CLR,,0.00,0.0,WeatherDisplay:10.37,2014-12-20 04:04:00,
2014-12-20 04:09:00,42.5,36.8,29.96,West,264,15.0,20.7,80,0.00,CLR,,0.00,0.0,WeatherDisplay:10.37,2014-12-20 04:09:00,
2014-12-20 04:14:00,42.5,37.1,29.96,West,272,9.7,11.5,81,0.00,CLR,,0.00,0.0,WeatherDisplay:10.37,2014-12-20 04:14:00,
2014-12-20 04:19:00,42.4,37.0,29.95,WSW,258,13.1,15.0,81,0.00,CLR,,0.00,0.0,WeatherDisplay:10.37,2014-12-20 04:19:00,
2014-12-20 04:24:00,42.3,36.9,29.95,SW,236,14.3,18.4,81,0.00,CLR,,0.00,0.0,WeatherDisplay:10.37,2014-12-20 04:24:00,
2014-12-20 04:29:00,42.4,37.3,29.94,WNW,300,13.0,16.1,82,0.00,CLR,,0.00,0.0,WeatherDisplay:10.37,2014-12-20 04:29:00,
2014-12-20 04:34:00,42.4,37.3,29.95,WSW,248,15.6,19.6,82,0.00,CLR,,0.00,0.0,WeatherDisplay:10.37,2014-12-20 04:34:00,
2014-12-20 04:39:00,42.4,37.3,29.95,West,263,15.7,19.6,82,0.00,CLR,,0.00,0.0,WeatherDisplay:10.37,2014-12-20 04:39:00,
2014-12-20 04:44:00,42.3,37.2,29.95,WSW,252,14.4,20.7,82,0.00,CLR,,0.00,0.0,WeatherDisplay:10.37,2014-12-20 04:44:00,
2014-12-20 04:49:00,42.6,37.2,29.95,West,263,17.2,20.7,81,0.00,CLR,,0.00,0.0,WeatherDisplay:10.37,2014-12-20 04:49:00,
2014-12-20 04:54:00,42.6,37.2,29.95,West,281,16.1,25.3,81,0.00,CLR,,0.00,0.0,WeatherDisplay:10.37,2014-12-20 04:54:00,
2014-12-20 04:59:00,42.5,37.1,29.94,WSW,252,17.1,20.7,81,0.00,CLR,,0.00,0.0,WeatherDisplay:10.37,2014-12-20 04:59:00,
2014-12-20 05:04:00,42.3,36.9,29.95,West,263,16.9,19.6,81,0.00,CLR,,0.00,0.0,WeatherDisplay:10.37,2014-12-20 05:04:00,
2014-12-20 05:09:00,42.4,37.0,29.96,West,268,17.1,24.2,81,0.00,CLR,,0.00,0.0,WeatherDisplay:10.37,2014-12-20 05:09:00,
2014-12-20 05:14:00,42.3,36.9,29.96,West,264,11.6,15.0,81,0.00,CLR,,0.00,0.0,WeatherDisplay:10.37,2014-12-20 05:14:00,
2014-12-20 05:19:00,42.2,37.1,29.97,WSW,258,15.1,20.7,82,0.00,CLR,,0.00,0.0,WeatherDisplay:10.37,2014-12-20 05:19:00,
2014-12-20 05:24:00,43.0,37.3,29.97,West,266,21.1,25.3,80,0.00,CLR,,0.00,0.0,WeatherDisplay:10.37,2014-12-20 05:24:00,
2014-12-20 05:30:00,43.2,37.4,29.97,West,280,13.8,19.6,80,0.00,CLR,,0.00,0.0,WeatherDisplay:10.37,2014-12-20 05:30:00,
2014-12-20 05:35:00,43.2,37.4,29.97,West,276,14.4,18.4,80,0.00,CLR,,0.00,0.0,WeatherDisplay:10.37,2014-12-20 05:35:00,
2014-12-20 05:40:00,42.9,37.2,29.97,WNW,284,15.5,18.4,80,0.00,CLR,,0.00,0.0,WeatherDisplay:10.37,2014-12-20 05:40:00,
2014-12-20 05:45:00,42.8,37.4,29.97,West,276,20.0,24.2,81,0.00,CLR,,0.00,0.0,WeatherDisplay:10.37,2014-12-20 05:45:00,
2014-12-20 05:50:00,42.8,37.1,29.97,West,275,14.1,20.0,80,0.00,CLR,,0.00,0.0,WeatherDisplay:10.37,2014-12-20 05:50:00,
2014-12-20 05:55:00,42.7,37.0,29.97,West,273,13.8,19.6,80,0.00,CLR,,0.00,0.0,WeatherDisplay:10.37,2014-12-20 05:55:00,
2014-12-20 06:00:00,42.7,37.0,29.98,West,281,12.9,17.3,80,0.00,CLR,,0.00,0.0,WeatherDisplay:10.37,2014-12-20 06:00:00,
2014-12-20 06:05:00,42.6,36.9,29.98,WNW,298,15.1,20.7,80,0.00,CLR,,0.00,0.0,WeatherDisplay:10.37,2014-12-20 06:05:00,
2014-12-20 06:10:00,43.1,37.0,29.98,West,266,16.8,26.5,79,0.00,CLR,,0.00,0.0,WeatherDisplay:10.37,2014-12-20 06:10:00,
2014-12-20 06:15:00,43.1,37.3,29.99,WNW,293,17.1,21.0,80,0.00,CLR,,0.00,0.0,WeatherDisplay:10.37,2014-12-20 06:15:00,
2014-12-20 06:20:00,43.4,37.6,29.99,West,279,20.7,26.5,80,0.00,CLR,,0.00,0.0,WeatherDisplay:10.37,2014-12-20 06:20:00,
2014-12-20 06:25:00,43.3,37.5,29.99,WNW,288,15.3,18.4,80,0.00,CLR,,0.00,0.0,WeatherDisplay:10.37,2014-12-20 06:25:00,
2014-12-20 06:30:00,43.3,37.5,29.99,West,267,16.3,20.7,80,0.00,CLR,,0.00,0.0,WeatherDisplay:10.37,2014-12-20 06:30:00,
2014-12-20 06:35:00,43.1,37.7,29.99,West,273,15.0,17.3,81,0.00,CLR,,0.00,0.0,WeatherDisplay:10.37,2014-12-20 06:35:00,
2014-12-20 06:40:00,42.9,37.5,30.00,West,276,19.8,20.7,81,0.00,CLR,,0.00,0.0,WeatherDisplay:10.37,2014-12-20 06:40:00,
2014-12-20 06:45:00,43.0,37.6,29.99,West,281,17.7,26.5,81,0.00,CLR,,0.00,0.0,WeatherDisplay:10.37,2014-12-20 06:45:00,
2014-12-20 06:50:00,42.9,37.8,29.99,WSW,256,11.8,17.3,82,0.00,CLR,,0.00,0.0,WeatherDisplay:10.37,2014-12-20 06:50:00,
2014-12-20 06:55:00,42.9,37.5,30.00,West,269,14.2,20.0,81,0.00,CLR,,0.00,0.0,WeatherDisplay:10.37,2014-12-20 06:55:00,
2014-12-20 07:00:00,42.9,37.5,30.00,WNW,289,15.3,21.9,81,0.00,CLR,,0.00,0.0,WeatherDisplay:10.37,2014-12-20 07:00:00,
2014-12-20 07:05:00,42.8,37.4,30.00,West,277,15.1,23.0,81,0.00,CLR,,0.00,0.0,WeatherDisplay:10.37,2014-12-20 07:05:00,
2014-12-20 07:10:00,42.8,37.7,30.01,WNW,292,15.9,19.6,82,0.00,CLR,,0.00,0.0,WeatherDisplay:10.37,2014-12-20 07:10:00,
2014-12-20 07:15:00,43.0,37.6,30.01,West,275,19.6,21.9,81,0.00,CLR,,0.00,0.0,WeatherDisplay:10.37,2014-12-20 07:15:00,
2014-12-20 07:20:00,43.1,37.7,30.02,West,272,13.8,21.9,81,0.00,CLR,,0.00,0.0,WeatherDisplay:10.37,2014-12-20 07:20:00,
2014-12-20 07:25:00,43.0,37.9,30.02,WSW,246,14.9,20.7,82,0.00,CLR,,0.00,0.0,WeatherDisplay:10.37,2014-12-20 07:25:00,
2014-12-20 07:30:00,43.0,37.6,30.02,WSW,250,14.3,20.7,81,0.00,CLR,,0.00,0.0,WeatherDisplay:10.37,2014-12-20 07:30:00,
2014-12-20 07:35:00,42.9,37.5,30.02,WSW,255,17.7,23.0,81,0.00,CLR,,0.00,0.0,WeatherDisplay:10.37,2014-12-20 07:35:00,
2014-12-20 07:40:00,43.1,37.7,30.02,WSW,256,15.4,19.6,81,0.00,CLR,,0.00,0.0,WeatherDisplay:10.37,2014-12-20 07:40:00,
2014-12-20 07:45:00,43.1,37.3,30.02,West,269,14.3,19.6,80,0.00,CLR,,0.00,0.0,WeatherDisplay:10.37,2014-12-20 07:45:00,
2014-12-20 07:50:00,43.1,37.3,30.02,WSW,241,15.6,18.4,80,0.00,CLR,,0.00,0.0,WeatherDisplay:10.37,2014-12-20 07:50:00,
2014-12-20 07:55:00,43.0,37.3,30.03,WNW,283,10.1,15.0,80,0.00,CLR,,0.00,0.0,WeatherDisplay:10.37,2014-12-20 07:55:00,
2014-12-20 08:00:00,43.0,37.3,30.03,West,259,12.6,15.0,80,0.00,CLR,,0.00,0.0,WeatherDisplay:10.37,2014-12-20 08:00:00,
2014-12-20 08:05:00,42.9,37.2,30.03,WSW,239,10.8,16.1,80,0.00,CLR,,0.00,0.0,WeatherDisplay:10.37,2014-12-20 08:05:00,
2014-12-20 08:10:00,42.9,37.2,30.03,WSW,246,11.1,14.0,80,0.00,CLR,,0.00,7.0,WeatherDisplay:10.37,2014-12-20 08:10:00,
2014-12-20 08:15:00,42.9,37.2,30.04,West,264,9.9,12.7,80,0.00,CLR,,0.00,14.0,WeatherDisplay:10.37,2014-12-20 08:15:00,
2014-12-20 08:20:00,42.8,37.1,30.04,WSW,248,10.3,13.0,80,0.00,OVC,,0.00,14.0,WeatherDisplay:10.37,2014-12-20 08:20:00,
2014-12-20 08:25:00,42.8,37.1,30.04,WSW,255,10.6,13.0,80,0.00,CLR,,0.00,12.0,WeatherDisplay:10.37,2014-12-20 08:25:00,
2014-12-20 08:30:00,42.9,37.5,30.05,WSW,242,10.4,16.1,81,0.00,CLR,,0.00,12.0,WeatherDisplay:10.37,2014-12-20 08:30:00,
2014-12-20 08:35:00,42.9,37.2,30.05,WSW,240,10.5,14.0,80,0.00,CLR,,0.00,14.0,WeatherDisplay:10.37,2014-12-20 08:35:00,
2014-12-20 08:40:00,42.9,37.2,30.05,WSW,246,10.1,15.0,80,0.00,FEW,,0.00,14.0,WeatherDisplay:10.37,2014-12-20 08:40:00,
2014-12-20 08:45:00,42.9,37.2,30.05,WSW,247,10.6,16.1,80,0.00,FEW,,0.00,19.0,WeatherDisplay:10.37,2014-12-20 08:45:00,
2014-12-20 08:50:00,42.8,37.4,30.05,WSW,254,9.7,13.8,81,0.00,SCT,,0.00,19.0,WeatherDisplay:10.37,2014-12-20 08:50:00,
2014-12-20 08:55:00,42.8,37.4,30.06,WSW,257,9.6,12.0,81,0.00,SCT,,0.00,25.0,WeatherDisplay:10.37,2014-12-20 08:55:00,
2014-12-20 09:00:00,42.6,37.2,30.06,WSW,252,8.3,11.5,81,0.00,SCT,,0.00,28.0,WeatherDisplay:10.37,2014-12-20 09:00:00,
2014-12-20 09:05:00,42.5,37.1,30.07,West,275,9.6,11.5,81,0.00,SCT,,0.00,23.0,WeatherDisplay:10.37,2014-12-20 09:05:00,
2014-12-20 09:10:00,42.6,37.2,30.07,West,271,7.6,11.5,81,0.00,SCT,,0.00,25.0,WeatherDisplay:10.37,2014-12-20 09:10:00,
2014-12-20 09:15:00,42.6,37.2,30.07,WSW,252,11.4,12.7,81,0.00,SCT,,0.00,30.0,WeatherDisplay:10.37,2014-12-20 09:15:00,
2014-12-20 09:20:00,42.6,37.2,30.08,WSW,248,9.2,11.5,81,0.00,SCT,,0.00,35.0,WeatherDisplay:10.37,2014-12-20 09:20:00,
2014-12-20 09:25:00,42.4,37.0,30.07,WSW,252,9.5,11.5,81,0.00,SCT,,0.00,46.0,WeatherDisplay:10.37,2014-12-20 09:25:00,
2014-12-20 09:30:00,42.3,36.9,30.07,WSW,248,11.1,16.1,81,0.00,SCT,,0.00,47.0,WeatherDisplay:10.37,2014-12-20 09:30:00,
2014-12-20 09:35:00,42.2,36.8,30.08,West,267,12.4,17.3,81,0.00,SCT,,0.00,58.0,WeatherDisplay:10.37,2014-12-20 09:35:00,
2014-12-20 09:40:00,42.3,36.9,30.08,WSW,257,12.6,19.6,81,0.00,FEW,,0.00,67.0,WeatherDisplay:10.37,2014-12-20 09:40:00,
2014-12-20 09:45:00,42.4,37.3,30.08,West,261,11.1,15.0,82,0.00,FEW,,0.00,81.0,WeatherDisplay:10.37,2014-12-20 09:45:00,
2014-12-20 09:50:00,42.3,36.9,30.08,WNW,291,7.7,15.0,81,0.00,FEW,,0.00,90.0,WeatherDisplay:10.37,2014-12-20 09:50:00,
2014-12-20 09:55:00,42.4,37.3,30.08,West,265,9.5,11.5,82,0.00,CLR,,0.00,105.0,WeatherDisplay:10.37,2014-12-20 09:55:00,
2014-12-20 10:00:00,42.5,37.1,30.09,West,269,8.4,12.0,81,0.00,CLR,,0.00,83.0,WeatherDisplay:10.37,2014-12-20 10:00:00,
2014-12-20 10:05:00,42.6,37.2,30.09,WSW,257,9.4,12.7,81,0.00,CLR,,0.00,88.0,WeatherDisplay:10.37,2014-12-20 10:05:00,
2014-12-20 10:10:00,42.7,37.0,30.09,WSW,258,9.9,15.0,80,0.00,FEW,,0.00,98.0,WeatherDisplay:10.37,2014-12-20 10:10:00,
2014-12-20 10:15:00,42.8,37.1,30.09,WNW,286,10.8,19.6,80,0.00,CLR,,0.00,93.0,WeatherDisplay:10.37,2014-12-20 10:15:00,
2014-12-20 10:20:00,43.1,37.0,30.09,West,259,14.5,15.0,79,0.00,CLR,,0.00,132.0,WeatherDisplay:10.37,2014-12-20 10:20:00,
2014-12-20 10:25:00,43.3,36.9,30.09,West,263,15.8,20.0,78,0.00,CLR,,0.00,135.0,WeatherDisplay:10.37,2014-12-20 10:25:00,
2014-12-20 10:30:00,43.4,37.0,30.09,West,271,14.4,21.0,78,0.00,CLR,,0.00,135.0,WeatherDisplay:10.37,2014-12-20 10:30:00,
2014-12-20 10:35:00,43.4,37.0,30.09,WNW,285,15.4,18.4,78,0.00,CLR,,0.00,139.0,WeatherDisplay:10.37,2014-12-20 10:35:00,
2014-12-20 10:40:00,43.5,37.4,30.09,West,280,13.6,19.6,79,0.00,CLR,,0.00,144.0,WeatherDisplay:10.37,2014-12-20 10:40:00,
2014-12-20 10:45:00,43.5,37.4,30.09,WNW,284,11.7,16.1,79,0.00,CLR,,0.00,128.0,WeatherDisplay:10.37,2014-12-20 10:45:00,
2014-12-20 10:50:00,43.5,37.4,30.09,West,279,11.3,12.7,79,0.00,CLR,,0.00,151.0,WeatherDisplay:10.37,2014-12-20 10:50:00,
2014-12-20 10:55:00,43.6,37.5,30.09,WNW,286,14.1,17.3,79,0.00,CLR,,0.00,118.0,WeatherDisplay:10.37,2014-12-20 10:55:00,
2014-12-20 11:00:00,43.6,37.5,30.09,West,269,13.3,16.1,79,0.00,CLR,,0.00,153.0,WeatherDisplay:10.37,2014-12-20 11:00:00,
2014-12-20 11:05:00,43.7,37.6,30.09,WSW,258,10.7,15.0,79,0.00,CLR,,0.00,165.0,WeatherDisplay:10.37,2014-12-20 11:05:00,
2014-12-20 11:10:00,43.7,38.3,30.09,West,260,10.9,15.0,81,0.00,CLR,,0.00,165.0,WeatherDisplay:10.37,2014-12-20 11:10:00,
2014-12-20 11:15:00,43.9,38.1,30.09,WSW,248,16.0,19.6,80,0.00,CLR,,0.00,181.0,WeatherDisplay:10.37,2014-12-20 11:15:00,
2014-12-20 11:20:00,44.1,38.0,30.10,West,276,15.9,19.6,79,0.00,CLR,,0.00,192.0,WeatherDisplay:10.37,2014-12-20 11:20:00,
2014-12-20 11:25:00,44.3,37.5,30.10,WNW,283,17.6,20.7,77,0.00,CLR,,0.00,172.0,WeatherDisplay:10.37,2014-12-20 11:25:00,
2014-12-20 11:30:00,44.7,37.3,30.11,West,278,18.1,26.5,75,0.00,CLR,,0.00,179.0,WeatherDisplay:10.37,2014-12-20 11:30:00,
2014-12-20 11:35:00,44.7,37.3,30.11,West,269,17.6,21.9,75,0.00,CLR,,0.00,142.0,WeatherDisplay:10.37,2014-12-20 11:35:00,
2014-12-20 11:40:00,45.0,36.9,30.11,West,281,20.3,24.2,73,0.00,CLR,,0.00,199.0,WeatherDisplay:10.37,2014-12-20 11:40:00,
2014-12-20 11:45:00,45.2,36.7,30.11,WNW,300,20.0,24.2,72,0.00,CLR,,0.00,213.0,WeatherDisplay:10.37,2014-12-20 11:45:00,
2014-12-20 11:50:00,45.1,37.0,30.12,WNW,301,12.5,20.7,73,0.00,CLR,,0.00,167.0,WeatherDisplay:10.37,2014-12-20 11:50:00,
2014-12-20 11:55:00,45.2,36.7,30.12,WNW,290,19.5,26.5,72,0.00,CLR,,0.00,213.0,WeatherDisplay:10.37,2014-12-20 11:55:00,
2014-12-20 12:00:00,45.3,36.8,30.13,WNW,289,14.1,20.0,72,0.00,CLR,,0.00,216.0,WeatherDisplay:10.37,2014-12-20 12:00:00,
2014-12-20 12:05:00,45.4,37.2,30.14,NW,310,12.8,19.0,73,0.00,CLR,,0.00,81.0,WeatherDisplay:10.37,2014-12-20 12:05:00,
2014-12-20 12:10:00,45.1,37.3,30.14,West,277,15.3,18.4,74,0.00,FEW,,0.00,93.0,WeatherDisplay:10.37,2014-12-20 12:10:00,
2014-12-20 12:15:00,45.1,37.3,30.14,WNW,296,12.8,17.3,74,0.00,SCT,,0.00,88.0,WeatherDisplay:10.37,2014-12-20 12:15:00,
2014-12-20 12:20:00,45.0,37.2,30.14,WNW,300,20.8,24.2,74,0.00,SCT,,0.00,49.0,WeatherDisplay:10.37,2014-12-20 12:20:00,
2014-12-20 12:25:00,44.8,37.4,30.14,West,271,14.5,18.4,75,0.00,SCT,,0.00,39.0,WeatherDisplay:10.37,2014-12-20 12:25:00,
2014-12-20 12:30:00,44.5,37.4,30.15,WNW,295,18.0,19.6,76,0.00,BKN,,0.00,28.0,WeatherDisplay:10.37,2014-12-20 12:30:00,
2014-12-20 12:35:00,44.5,37.7,30.15,WNW,283,10.2,13.8,77,0.00,BKN,,0.00,26.0,WeatherDisplay:10.37,2014-12-20 12:35:00,
2014-12-20 12:41:00,44.2,37.4,30.15,WNW,293,11.6,15.0,77,0.00,BKN,,0.00,32.0,WeatherDisplay:10.37,2014-12-20 12:41:00,
2014-12-20 12:46:00,44.3,37.2,30.15,WNW,291,14.4,18.0,76,0.00,BKN,,0.00,37.0,WeatherDisplay:10.37,2014-12-20 12:46:00,
2014-12-20 12:51:00,44.2,37.1,30.15,West,277,15.8,18.4,76,0.00,BKN,,0.00,40.0,WeatherDisplay:10.37,2014-12-20 12:51:00,
2014-12-20 12:56:00,44.2,36.8,30.16,WNW,292,15.6,19.6,75,0.00,BKN,,0.00,37.0,WeatherDisplay:10.37,2014-12-20 12:56:00,
2014-12-20 13:01:00,44.3,36.5,30.16,West,279,15.6,18.4,74,0.00,BKN,,0.00,37.0,WeatherDisplay:10.37,2014-12-20 13:01:00,
2014-12-20 13:06:00,44.1,36.3,30.16,WNW,296,15.9,24.2,74,0.00,BKN,,0.00,39.0,WeatherDisplay:10.37,2014-12-20 13:06:00,
2014-12-20 13:11:00,44.1,36.7,30.17,WNW,284,16.1,19.6,75,0.00,BKN,,0.00,44.0,WeatherDisplay:10.37,2014-12-20 13:11:00,
2014-12-20 13:16:00,43.9,36.5,30.17,West,267,14.7,19.6,75,0.00,SCT,,0.00,49.0,WeatherDisplay:10.37,2014-12-20 13:16:00,
2014-12-20 13:21:00,44.0,36.9,30.17,West,281,14.1,19.6,76,0.00,SCT,,0.00,65.0,WeatherDisplay:10.37,2014-12-20 13:21:00,
2014-12-20 13:26:00,44.1,37.0,30.17,WNW,284,13.2,16.1,76,0.00,SCT,,0.00,118.0,WeatherDisplay:10.37,2014-12-20 13:26:00,
2014-12-20 13:31:00,44.3,37.5,30.17,WNW,286,12.8,16.1,77,0.00,FEW,,0.00,149.0,WeatherDisplay:10.37,2014-12-20 13:31:00,
2014-12-20 13:36:00,44.5,37.7,30.18,WNW,285,13.6,17.3,77,0.00,CLR,,0.00,181.0,WeatherDisplay:10.37,2014-12-20 13:36:00,
2014-12-20 13:41:00,44.8,38.0,30.17,WNW,285,14.3,17.3,77,0.00,CLR,,0.00,192.0,WeatherDisplay:10.37,2014-12-20 13:41:00,
2014-12-20 13:46:00,45.1,37.6,30.17,West,271,15.1,19.6,75,0.00,CLR,,0.00,181.0,WeatherDisplay:10.37,2014-12-20 13:46:00,
2014-12-20 13:51:00,45.3,38.2,30.18,WNW,296,12.8,17.0,76,0.00,CLR,,0.00,172.0,WeatherDisplay:10.37,2014-12-20 13:51:00,
2014-12-20 13:56:00,45.5,37.7,30.18,West,281,14.0,20.7,74,0.00,CLR,,0.00,163.0,WeatherDisplay:10.37,2014-12-20 13:56:00,
2014-12-20 14:01:00,45.4,37.6,30.18,WNW,296,16.3,18.4,74,0.00,CLR,,0.00,121.0,WeatherDisplay:10.37,2014-12-20 14:01:00,
2014-12-20 14:06:00,45.1,37.6,30.18,WNW,294,13.3,16.1,75,0.00,CLR,,0.00,76.0,WeatherDisplay:10.37,2014-12-20 14:06:00,
2014-12-20 14:11:00,44.8,37.4,30.18,WNW,297,16.0,19.6,75,0.00,FEW,,0.00,63.0,WeatherDisplay:10.37,2014-12-20 14:11:00,
2014-12-20 14:16:00,44.6,37.5,30.18,NW,306,13.8,20.0,76,0.00,SCT,,0.00,56.0,WeatherDisplay:10.37,2014-12-20 14:16:00,
2014-12-20 14:21:00,44.6,37.5,30.18,WNW,297,14.1,18.4,76,0.00,SCT,,0.00,56.0,WeatherDisplay:10.37,2014-12-20 14:21:00,
2014-12-20 14:26:00,44.3,37.5,30.18,WNW,286,14.2,17.0,77,0.00,SCT,,0.00,49.0,WeatherDisplay:10.37,2014-12-20 14:26:00,
2014-12-20 14:31:00,44.3,37.5,30.18,WNW,288,12.7,17.3,77,0.00,SCT,,0.00,44.0,WeatherDisplay:10.37,2014-12-20 14:31:00,
2014-12-20 14:36:00,44.3,37.5,30.19,WNW,289,15.3,18.4,77,0.00,SCT,,0.00,37.0,WeatherDisplay:10.37,2014-12-20 14:36:00,
2014-12-20 14:41:00,44.1,37.3,30.19,WNW,282,10.7,15.0,77,0.00,SCT,,0.00,39.0,WeatherDisplay:10.37,2014-12-20 14:41:00,
2014-12-20 14:46:00,44.0,37.6,30.19,WNW,286,10.0,13.8,78,0.00,SCT,,0.00,37.0,WeatherDisplay:10.37,2014-12-20 14:46:00,
2014-12-20 14:51:00,43.8,37.4,30.19,WNW,288,10.5,15.0,78,0.00,SCT,,0.00,32.0,WeatherDisplay:10.37,2014-12-20 14:51:00,
2014-12-20 14:56:00,43.6,37.5,30.19,West,274,11.8,16.0,79,0.00,SCT,,0.00,28.0,WeatherDisplay:10.37,2014-12-20 14:56:00,
2014-12-20 15:01:00,43.9,37.5,30.19,WNW,284,13.7,19.6,78,0.00,SCT,,0.00,25.0,WeatherDisplay:10.37,2014-12-20 15:01:00,
2014-12-20 15:06:00,43.9,37.5,30.20,WNW,294,12.6,16.1,78,0.00,SCT,,0.00,21.0,WeatherDisplay:10.37,2014-12-20 15:06:00,
2014-12-20 15:11:00,43.8,37.4,30.20,WNW,302,12.3,17.3,78,0.00,SCT,,0.00,19.0,WeatherDisplay:10.37,2014-12-20 15:11:00,
2014-12-20 15:16:00,43.4,37.3,30.20,WNW,296,11.9,15.0,79,0.00,SCT,,0.00,18.0,WeatherDisplay:10.37,2014-12-20 15:16:00,
2014-12-20 15:21:00,43.3,37.2,30.20,NW,314,10.6,12.7,79,0.00,FEW,,0.00,16.0,WeatherDisplay:10.37,2014-12-20 15:21:00,
2014-12-20 15:26:00,43.3,37.2,30.20,WNW,288,11.3,15.0,79,0.00,CLR,,0.00,16.0,WeatherDisplay:10.37,2014-12-20 15:26:00,
2014-12-20 15:31:00,43.2,37.1,30.21,West,267,7.1,9.2,79,0.00,CLR,,0.00,14.0,WeatherDisplay:10.37,2014-12-20 15:31:00,
2014-12-20 15:36:00,43.1,37.3,30.21,West,272,6.8,8.1,80,0.00,CLR,,0.00,11.0,WeatherDisplay:10.37,2014-12-20 15:36:00,
2014-12-20 15:41:00,42.9,37.2,30.22,West,265,3.4,5.8,80,0.00,OVC,,0.00,11.0,WeatherDisplay:10.37,2014-12-20 15:41:00,
2014-12-20 15:46:00,42.7,37.0,30.22,West,260,2.7,3.5,80,0.00,CLR,,0.00,9.0,WeatherDisplay:10.37,2014-12-20 15:46:00,
2014-12-20 15:51:00,42.5,36.8,30.22,SW,233,3.9,6.0,80,0.00,CLR,,0.00,9.0,WeatherDisplay:10.37,2014-12-20 15:51:00,
2014-12-20 15:56:00,42.4,36.7,30.22,WSW,255,5.4,8.1,80,0.00,CLR,,0.00,7.0,WeatherDisplay:10.37,2014-12-20 15:56:00,
2014-12-20 16:01:00,42.1,36.7,30.22,West,263,5.1,6.9,81,0.00,CLR,,0.00,7.0,WeatherDisplay:10.37,2014-12-20 16:01:00,
2014-12-20 16:06:00,41.9,36.5,30.23,West,259,3.6,5.8,81,0.00,CLR,,0.00,5.0,WeatherDisplay:10.37,2014-12-20 16:06:00,
2014-12-20 16:11:00,41.9,36.5,30.23,West,263,3.9,4.6,81,0.00,CLR,,0.00,5.0,WeatherDisplay:10.37,2014-12-20 16:11:00,
2014-12-20 16:16:00,41.7,36.6,30.23,West,263,2.7,4.6,82,0.00,CLR,,0.00,5.0,WeatherDisplay:10.37,2014-12-20 16:16:00,
2014-12-20 16:21:00,41.6,36.5,30.23,West,263,4.3,5.0,82,0.00,CLR,,0.00,0.0,WeatherDisplay:10.37,2014-12-20 16:21:00,
2014-12-20 16:26:00,41.3,36.5,30.23,West,269,7.2,8.1,83,0.00,CLR,,0.00,0.0,WeatherDisplay:10.37,2014-12-20 16:26:00,
2014-12-20 16:31:00,41.3,36.5,30.23,West,261,7.7,11.0,83,0.00,CLR,,0.00,0.0,WeatherDisplay:10.37,2014-12-20 16:31:00,
2014-12-20 16:36:00,41.5,36.7,30.23,West,279,8.3,11.5,83,0.00,CLR,,0.00,0.0,WeatherDisplay:10.37,2014-12-20 16:36:00,
2014-12-20 16:41:00,41.8,37.0,30.23,West,280,10.7,12.7,83,0.00,CLR,,0.00,0.0,WeatherDisplay:10.37,2014-12-20 16:41:00,
2014-12-20 16:46:00,42.0,37.2,30.23,WNW,292,11.2,12.7,83,0.00,CLR,,0.00,0.0,WeatherDisplay:10.37,2014-12-20 16:46:00,
2014-12-20 16:51:00,42.2,37.1,30.23,West,269,8.5,11.5,82,0.00,CLR,,0.00,0.0,WeatherDisplay:10.37,2014-12-20 16:51:00,
2014-12-20 16:56:00,42.2,37.4,30.23,WNW,285,7.0,11.5,83,0.00,CLR,,0.00,0.0,WeatherDisplay:10.37,2014-12-20 16:56:00,
2014-12-20 17:01:00,42.2,37.4,30.24,WNW,294,7.7,10.4,83,0.00,CLR,,0.00,0.0,WeatherDisplay:10.37,2014-12-20 17:01:00,
2014-12-20 17:06:00,42.2,37.1,30.24,WNW,283,5.0,5.8,82,0.00,CLR,,0.00,0.0,WeatherDisplay:10.37,2014-12-20 17:06:00,
2014-12-20 17:11:00,42.1,37.0,30.24,WNW,291,4.5,5.0,82,0.00,CLR,,0.00,0.0,WeatherDisplay:10.37,2014-12-20 17:11:00,
2014-12-20 17:16:00,42.1,37.0,30.24,WNW,296,4.4,5.8,82,0.00,CLR,,0.00,0.0,WeatherDisplay:10.37,2014-12-20 17:16:00,
2014-12-20 17:21:00,42.1,37.0,30.24,West,276,5.3,6.9,82,0.00,CLR,,0.00,0.0,WeatherDisplay:10.37,2014-12-20 17:21:00,
2014-12-20 17:26:00,42.3,37.2,30.24,West,271,7.8,11.5,82,0.00,CLR,,0.00,0.0,WeatherDisplay:10.37,2014-12-20 17:26:00,
2014-12-20 17:31:00,42.7,37.6,30.24,WNW,283,6.6,9.2,82,0.00,CLR,,0.00,0.0,WeatherDisplay:10.37,2014-12-20 17:31:00,
2014-12-20 17:36:00,42.8,37.4,30.25,West,269,5.6,8.1,81,0.00,CLR,,0.00,0.0,WeatherDisplay:10.37,2014-12-20 17:36:00,
2014-12-20 17:41:00,42.8,37.4,30.25,West,263,5.3,6.9,81,0.00,CLR,,0.00,0.0,WeatherDisplay:10.37,2014-12-20 17:41:00,
2014-12-20 17:46:00,42.7,37.3,30.25,SW,234,3.5,3.5,81,0.00,CLR,,0.00,0.0,WeatherDisplay:10.37,2014-12-20 17:46:00,
2014-12-20 17:51:00,42.7,37.3,30.26,SW,232,2.1,3.5,81,0.00,CLR,,0.00,0.0,WeatherDisplay:10.37,2014-12-20 17:51:00,
2014-12-20 17:56:00,42.5,37.1,30.26,WSW,257,3.0,3.5,81,0.00,CLR,,0.00,0.0,WeatherDisplay:10.37,2014-12-20 17:56:00,
2014-12-20 18:01:00,42.5,37.4,30.26,WSW,247,2.2,3.5,82,0.00,CLR,,0.00,0.0,WeatherDisplay:10.37,2014-12-20 18:01:00,
2014-12-20 18:06:00,42.4,37.3,30.26,WSW,249,3.8,5.8,82,0.00,CLR,,0.00,0.0,WeatherDisplay:10.37,2014-12-20 18:06:00,
2014-12-20 18:11:00,42.2,37.1,30.26,WSW,250,4.1,4.6,82,0.00,CLR,,0.00,0.0,WeatherDisplay:10.37,2014-12-20 18:11:00,
2014-12-20 18:16:00,42.1,37.3,30.26,West,267,2.2,5.8,83,0.00,CLR,,0.00,0.0,WeatherDisplay:10.37,2014-12-20 18:16:00,
2014-12-20 18:21:00,41.9,37.4,30.26,West,262,5.4,8.1,84,0.00,CLR,,0.00,0.0,WeatherDisplay:10.37,2014-12-20 18:21:00,
2014-12-20 18:26:00,42.1,37.9,30.26,WSW,255,6.0,10.4,85,0.00,CLR,,0.00,0.0,WeatherDisplay:10.37,2014-12-20 18:26:00,
2014-12-20 18:31:00,42.3,37.8,30.26,WSW,251,8.1,11.5,84,0.00,CLR,,0.00,0.0,WeatherDisplay:10.37,2014-12-20 18:31:00,
2014-12-20 18:36:00,42.4,38.2,30.27,West,267,6.2,9.2,85,0.00,CLR,,0.00,0.0,WeatherDisplay:10.37,2014-12-20 18:36:00,
2014-12-20 18:41:00,42.5,38.3,30.27,West,274,6.7,10.4,85,0.00,CLR,,0.00,0.0,WeatherDisplay:10.37,2014-12-20 18:41:00,
2014-12-20 18:46:00,42.5,38.3,30.27,WSW,251,6.0,6.9,85,0.00,CLR,,0.00,0.0,WeatherDisplay:10.37,2014-12-20 18:46:00,
2014-12-20 18:51:00,42.4,38.2,30.27,WNW,282,5.1,6.9,85,0.00,CLR,,0.00,0.0,WeatherDisplay:10.37,2014-12-20 18:51:00,
2014-12-20 18:57:00,42.3,38.1,30.27,WSW,258,6.8,8.1,85,0.00,CLR,,0.00,0.0,WeatherDisplay:10.37,2014-12-20 18:57:00,
2014-12-20 19:02:00,42.2,38.0,30.28,West,265,6.6,11.5,85,0.00,CLR,,0.00,0.0,WeatherDisplay:10.37,2014-12-20 19:02:00,
2014-12-20 19:07:00,42.3,38.1,30.28,WSW,254,6.5,8.1,85,0.00,CLR,,0.00,0.0,WeatherDisplay:10.37,2014-12-20 19:07:00,
2014-12-20 19:12:00,42.4,38.2,30.28,WSW,250,4.6,7.0,85,0.00,CLR,,0.00,0.0,WeatherDisplay:10.37,2014-12-20 19:12:00,
2014-12-20 19:17:00,42.3,38.1,30.28,SSW,207,4.7,5.8,85,0.00,CLR,,0.00,0.0,WeatherDisplay:10.37,2014-12-20 19:17:00,
2014-12-20 19:22:00,42.1,37.9,30.28,SW,222,5.0,6.0,85,0.00,CLR,,0.00,0.0,WeatherDisplay:10.37,2014-12-20 19:22:00,
2014-12-20 19:27:00,42.1,37.9,30.28,SW,222,4.6,5.8,85,0.00,CLR,,0.00,0.0,WeatherDisplay:10.37,2014-12-20 19:27:00,
2014-12-20 19:32:00,42.1,37.9,30.28,SSW,211,4.5,4.6,85,0.00,CLR,,0.00,0.0,WeatherDisplay:10.37,2014-12-20 19:32:00,
2014-12-20 19:37:00,42.0,37.8,30.28,SW,219,3.5,3.5,85,0.00,CLR,,0.00,0.0,WeatherDisplay:10.37,2014-12-20 19:37:00,
2014-12-20 19:42:00,41.9,37.7,30.28,WSW,243,3.4,5.0,85,0.00,CLR,,0.00,0.0,WeatherDisplay:10.37,2014-12-20 19:42:00,
2014-12-20 19:47:00,41.9,37.7,30.28,WSW,248,3.9,4.6,85,0.00,CLR,,0.00,0.0,WeatherDisplay:10.37,2014-12-20 19:47:00,
2014-12-20 19:52:00,42.0,37.8,30.28,SW,232,2.7,3.5,85,0.00,CLR,,0.00,0.0,WeatherDisplay:10.37,2014-12-20 19:52:00,
2014-12-20 19:57:00,42.0,37.8,30.28,West,261,2.9,3.5,85,0.00,CLR,,0.00,0.0,WeatherDisplay:10.37,2014-12-20 19:57:00,